• Join FlightAware (Why Join?)
  • Login
  • US Flag 
06:22PM EDT


 

Airport Tracker/Info


-or-


 

Live Flight TrackerFlight Track Log ✈ EGF3773 ✈ 02-May-2013 ✈ KDEN - KORD

Flight Track Log - Related Links

Times and Time Zones

All times are in EDT time to prevent confusion due to time zone crossing. See the EGF3773 flight status page for this flight to view local times or setup timezone preferences in your user account.

Time Position Orientation Groundspeed Altitude Reporting Facility
EDT Latitude Longitude Course Direction KTS MPH feet Rate Location/Type
08:28PM 39.8833 -104.5833 66° East 181 208 6,800  Level Denver TRACON
08:29PM 39.9000 -104.5000 75° East 244 281 8,600 1,620 Climbing Denver TRACON
08:30PM 39.9240 -104.2351 73° East  Level FlightAware Approximate
08:30PM 39.9167 -104.4167 75° East 284 327 9,900  Level Denver TRACON
08:31PM 39.9567 -104.0935 73° East  Level FlightAware Approximate
08:31PM 39.9286 -104.3514 77° East 290 334 10,000  Level Denver Center
08:32PM 39.9777 -103.9503 66° East  Level FlightAware Approximate
08:32PM 39.9511 -104.2494 74° East 295 339 11,700  Level Denver Center
08:33PM 40.0033 -103.8067 66° East  Level FlightAware Approximate
08:33PM 39.9742 -104.1331 75° East 308 354 14,100  Level Denver Center
08:34PM 39.9872 -104.0097 82° East 343 395 15,600 1,320 Climbing Denver Center
08:35PM 40.0053 -103.8608 81° East 385 443 16,900 1,380 Climbing Denver Center
08:36PM 40.0283 -103.7192 78° East 393 452 18,500 1,740 Climbing Denver Center
08:37PM 40.0517 -103.5803 78° East 389 448 20,600 1,980 Climbing Denver Center
08:38PM 40.0747 -103.4389 78° East 394 453 22,600 1,680 Climbing Denver Center
08:39PM 40.0983 -103.2967 78° East 397 457 24,100 1,440 Climbing Denver Center
08:40PM 40.1211 -103.1494 79° East 408 470 25,600 1,200 Climbing Denver Center
08:41PM 40.1456 -102.9992 78° East 419 482 26,600 960 Climbing Denver Center
08:42PM 40.1822 -102.8239 75° East 425 489 27,800 1,080 Climbing Denver Center
08:43PM 40.2322 -102.6575 68° East 430 495 29,100 1,200 Climbing Denver Center
08:44PM 40.2797 -102.4972 69° East 425 489 30,300 1,020 Climbing Denver Center
08:45PM 40.3200 -102.3589 69° East 425 489 31,300 1,020 Climbing Denver Center
08:46PM 40.3675 -102.1947 69° East 431 496 32,400 1,020 Climbing Denver Center
08:47PM 40.4089 -102.0544 69° East 431 496 33,400 780 Climbing Denver Center
08:49PM 40.4497 -101.9125 69° East 432 497 34,100 720 Climbing Denver Center
08:50PM 40.4975 -101.7444 69° East 440 506 34,900 420 Climbing Denver Center
08:51PM 40.5389 -101.5975 70° East 447 514 35,000  Climbing Denver Center
08:52PM 40.5894 -101.4194 69° East 467 537 35,000 240 Level Denver Center
08:53PM 40.6469 -101.2133 70° East 470 541 35,600 720 Climbing Denver Center
08:54PM 40.6892 -101.0606 70° East 466 536 36,500 660 Climbing Denver Center
08:55PM 40.7369 -100.8856 70° East 458 527 37,000 240 Climbing Denver Center
08:56PM 40.7825 -100.7222 70° East 470 541 37,000  Level Denver Center
08:57PM 40.8300 -100.5503 70° East 487 560 37,000  Level Denver Center
08:58PM 40.8728 -100.3903 70° East 487 560 37,000  Level Denver Center
08:59PM 40.9089 -100.2578 70° East 484 557 37,000  Level Denver Center
09:00PM 40.9664 -100.0422 70° East 487 560 37,000  Level Denver Center
09:01PM 41.0156 -99.8542 71° East 485 558 37,000  Level Denver Center
09:02PM 41.0633 -99.6761 70° East 486 559 37,000  Level Denver Center
09:03PM 41.1081 -99.5033 71° East 486 559 37,000  Level Denver Center
09:04PM 41.1511 -99.3356 71° East 487 560 37,000  Level Denver Center
09:05PM 41.1956 -99.1656 71° East 485 558 37,000  Level Denver Center
09:06PM 41.2397 -98.9894 72° East 486 559 37,000  Level Denver Center
09:07PM 41.2806 -98.8256 72° East 487 560 37,000  Level Denver Center
09:08PM 41.2914 -98.7886 69° East 487 560 37,000  Level Minneapolis Center
09:09PM 41.3422 -98.5819 72° East 488 562 37,000  Level Minneapolis Center
09:10PM 41.3889 -98.3983 71° East 492 566 37,000  Level Minneapolis Center
09:11PM 41.4322 -98.2225 72° East 497 572 37,000  Level Minneapolis Center
09:12PM 41.4739 -98.0569 71° East 499 574 37,000  Level Minneapolis Center
09:13PM 41.5164 -97.8803 72° East 500 575 37,000  Level Minneapolis Center
09:14PM 41.5594 -97.7028 72° East 502 578 37,000  Level Minneapolis Center
09:15PM 41.6039 -97.5231 72° East 507 583 37,000  Level Minneapolis Center
09:16PM 41.6550 -97.3067 72° East 507 583 37,000  Level Minneapolis Center
09:17PM 41.6967 -97.1272 73° East 506 582 37,000  Level Minneapolis Center
09:18PM 41.7397 -96.9450 72° East 510 587 37,000  Level Minneapolis Center
09:19PM 41.7731 -96.8003 73° East 508 585 37,000  Level Minneapolis Center
09:20PM 41.8231 -96.5836 73° East 506 582 37,000  Level Minneapolis Center
09:21PM 41.8647 -96.4019 73° East 505 581 37,000  Level Minneapolis Center
09:22PM 41.9053 -96.2183 73° East 508 585 37,000  Level Minneapolis Center
09:23PM 41.9325 -96.0331 79° East 501 577 37,000  Level Minneapolis Center
09:24PM 41.9581 -95.8047 81° East 508 585 37,000  Level Minneapolis Center
09:25PM 41.9786 -95.6175 82° East 505 581 37,000  Level Minneapolis Center
09:26PM 41.9983 -95.4303 82° East 505 581 37,000  Level Minneapolis Center
09:27PM 42.0169 -95.2453 82° East 499 574 37,000  Level Minneapolis Center
09:28PM 42.0367 -95.0594 82° East 500 575 37,000  Level Minneapolis Center
09:29PM 42.0558 -94.8744 82° East 498 573 37,000  Level Minneapolis Center
09:30PM 42.0736 -94.6903 83° East 496 571 37,000  Level Minneapolis Center
09:31PM 42.0914 -94.5072 82° East 494 568 37,000  Level Minneapolis Center
09:32PM 42.1089 -94.3253 83° East 491 565 37,000  Level Minneapolis Center
09:33PM 42.1306 -94.1058 82° East 492 566 37,000  Level Minneapolis Center
09:34PM 42.1486 -93.9217 82° East 494 568 37,000  Level Minneapolis Center
09:35PM 42.1647 -93.7408 83° East 499 574 37,000  Level Minneapolis Center
09:36PM 42.1811 -93.5553 83° East 502 578 37,000  Level Minneapolis Center
09:37PM 42.1981 -93.3733 83° East 498 573 37,000  Level Minneapolis Center
09:38PM 42.2106 -93.2261 83° East 497 572 37,000  Level Minneapolis Center
09:39PM 42.2292 -93.0064 83° East 497 572 37,000  Level Minneapolis Center
09:40PM 42.2472 -92.7917 83° East 488 562 37,000  Level Minneapolis Center
09:42PM 42.2628 -92.6158 83° East 482 555 37,000  Level Minneapolis Center
09:43PM 42.2764 -92.4394 84° East 477 549 37,000  Level Minneapolis Center
09:44PM 42.2911 -92.2642 83° East 477 549 37,000  Level Minneapolis Center
09:45PM 42.3033 -92.0858 85° East 479 551 37,000  Level Chicago Center
09:46PM 42.3200 -91.8750 84° East 478 550 37,000 -180 Level Chicago Center
09:47PM 42.3336 -91.6981 84° East 480 552 36,700 -660 Descending Chicago Center
09:48PM 42.3467 -91.5208 84° East 481 554 35,700 -1,080 Descending Chicago Center
09:49PM 42.3589 -91.3389 85° East 493 567 34,500 -1,260 Descending Chicago Center
09:50PM 42.3719 -91.1569 84° East 495 570 33,200 -1,260 Descending Chicago Center
09:51PM 42.3850 -90.9378 85° East 495 570 32,000 -1,140 Descending Chicago Center
09:52PM 42.3981 -90.7514 85° East 501 577 30,900 -1,320 Descending Chicago Center
09:53PM 42.4144 -90.5667 83° East 499 574 29,400 -1,500 Descending Chicago Center
09:54PM 42.4336 -90.3869 82° East 489 563 27,900 -1,500 Descending Chicago Center
09:55PM 42.4308 -90.2144 91° East 466 536 26,400 -1,980 Descending Chicago Center
09:56PM 42.4261 -90.0042 92° East 471 542 23,900 -2,340 Descending Chicago Center
09:57PM 42.4200 -89.8231 93° East 461 531 21,700 -2,100 Descending Chicago Center
09:58PM 42.4158 -89.6589 92° East 441 507 19,700 -1,980 Descending Chicago Center
09:59PM 42.4106 -89.5014 93° East 424 488 17,700 -1,800 Descending Chicago Center
10:00PM 42.4058 -89.3478 92° East 412 474 16,000 -1,620 Descending Chicago Center
10:01PM 42.4006 -89.2019 93° East 391 450 14,400 -1,500 Descending Chicago Center
10:02PM 42.3961 -89.0556 92° East 390 449 13,000 -1,320 Descending Chicago Center
10:03PM 42.3903 -88.8983 93° East 356 410 11,700 -1,200 Descending Chicago Center
10:04PM 42.3847 -88.7839 94° East 313 360 10,600 -1,080 Descending Chicago Center
10:05PM 42.3697 -88.6806 101° East 286 329 9,500 -780 Descending Chicago Center
10:06PM 42.3433 -88.5833 110° East 279 321 9,100 -540 Descending Chicago Center
10:07PM 42.3081 -88.4811 115° Southeast 277 319 8,400 -1,020 Descending Chicago Center
10:08PM 42.2806 -88.3883 112° Southeast 271 312 7,100 -720 Descending Chicago Center
10:09PM 42.2831 -88.2861 88° East 278 320 7,000 -60 Descending Chicago Center
10:10PM 42.2589 -88.2031 111° Southeast 255 293 7,000  Level Chicago Center
10:11PM 42.2003 -88.1525 147° Southeast 250 288 7,000 -360 Level Chicago Center
10:12PM 42.1317 -88.1406 173° South 250 288 6,300 -1,320 Descending Chicago Center
10:13PM 42.0689 -88.1725 201° Southwest 248 285 4,400 -1,140 Descending Chicago Center
10:14PM 42.0014 -88.2092 202° Southwest 230 265 4,000 -480 Descending Chicago Center
10:15PM 41.9675 -88.1550 130° Southeast 211 243 3,500 -420 Descending Chicago Center
10:16PM 41.9667 -88.1000 91° East 197 227 3,300 -300 Descending Chicago TRACON